Time;durP1;ratioP1;P1;durP2;ratioP2;P2;SDS_P1;SDS_P2;PMS_P1;PMS_P2;Temp;Humidity;BMP_temperature;BMP_pressure;BME280_temperature;BME280_humidity;BME280_pressure;Samples;Min_cycle;Max_cycle;Signal;HPM_P1;HPM_P2
2022/08/31 00:05:25;;;;;;;2.80;2.30;;;19.60;99.90;;;;;;5061864;28;20244;-75
2022/08/31 00:07:52;;;;;;;2.75;2.15;;;19.30;99.90;;;;;;5065253;28;20264;-75
2022/08/31 00:10:26;;;;;;;6.32;2.20;;;19.30;99.90;;;;;;5068278;28;20221;-74
2022/08/31 00:12:53;;;;;;;2.55;2.35;;;19.20;99.90;;;;;;5052213;28;20211;-76
2022/08/31 00:15:23;;;;;;;1.85;1.75;;;18.90;99.90;;;;;;5048502;28;20726;-76
2022/08/31 00:17:51;;;;;;;2.40;2.20;;;18.70;99.90;;;;;;5049017;28;20194;-76
2022/08/31 00:20:21;;;;;;;2.50;2.30;;;18.70;99.90;;;;;;5048921;28;20589;-75
2022/08/31 00:22:48;;;;;;;2.22;2.08;;;18.60;99.90;;;;;;5049193;28;20585;-75
2022/08/31 00:25:15;;;;;;;2.35;2.15;;;18.60;99.90;;;;;;5046825;28;20219;-73
2022/08/31 00:27:42;;;;;;;2.53;2.08;;;18.80;99.90;;;;;;5051376;28;20252;-75
2022/08/31 00:30:11;;;;;;;2.47;2.28;;;18.90;99.90;;;;;;5050633;28;20227;-74
2022/08/31 00:32:39;;;;;;;2.00;1.90;;;19.00;99.90;;;;;;5048364;28;20243;-75
2022/08/31 00:35:08;;;;;;;2.42;2.22;;;19.10;99.90;;;;;;5049046;28;20600;-75
2022/08/31 00:37:35;;;;;;;2.63;2.28;;;19.10;99.90;;;;;;5049421;28;20565;-76
2022/08/31 00:40:02;;;;;;;2.25;2.05;;;19.20;99.90;;;;;;5047915;28;20700;-73
2022/08/31 00:42:31;;;;;;;2.00;1.90;;;19.00;99.90;;;;;;5050067;28;20214;-75
2022/08/31 00:44:58;;;;;;;2.13;1.95;;;19.10;99.90;;;;;;5047689;28;20223;-75
2022/08/31 00:47:25;;;;;;;2.60;2.40;;;19.10;99.90;;;;;;5045555;28;20209;-75
2022/08/31 00:49:54;;;;;;;1.90;1.80;;;19.20;99.90;;;;;;5047243;28;20226;-76
2022/08/31 00:52:24;;;;;;;2.40;2.20;;;19.20;99.90;;;;;;5049410;28;20215;-75
2022/08/31 00:54:55;;;;;;;2.72;2.40;;;19.10;99.90;;;;;;5039813;28;20218;-76
2022/08/31 00:57:24;;;;;;;3.13;2.83;;;18.90;99.90;;;;;;5047884;28;20206;-75
2022/08/31 00:59:51;;;;;;;3.63;2.63;;;18.70;99.90;;;;;;5047453;28;20242;-75
2022/08/31 01:02:18;;;;;;;2.63;2.42;;;18.50;99.90;;;;;;5051178;28;20222;-75
2022/08/31 01:04:45;;;;;;;2.60;2.40;;;18.50;99.90;;;;;;5048740;28;20226;-75
2022/08/31 01:07:14;;;;;;;2.17;2.03;;;18.60;99.90;;;;;;5046540;28;20245;-75
2022/08/31 01:09:44;;;;;;;2.10;2.00;;;18.90;99.90;;;;;;5046797;28;20288;-73
2022/08/31 01:12:12;;;;;;;2.50;2.30;;;19.10;99.90;;;;;;5048041;28;20305;-75
2022/08/31 01:14:40;;;;;;;2.60;1.88;;;19.40;99.90;;;;;;5049351;28;20214;-77
2022/08/31 01:17:08;;;;;;;2.10;2.00;;;19.60;99.90;;;;;;5047677;28;20191;-75
2022/08/31 01:19:39;;;;;;;2.00;1.90;;;19.70;99.90;;;;;;5044875;28;21843;-75
2022/08/31 01:22:14;;;;;;;2.35;1.90;;;19.90;99.90;;;;;;5048391;28;20226;-75
2022/08/31 01:24:45;;;;;;;1.83;1.73;;;20.10;99.90;;;;;;5046266;28;20637;-76
2022/08/31 01:27:16;;;;;;;1.92;1.83;;;20.20;99.90;;;;;;5045258;28;20214;-74
2022/08/31 01:29:43;;;;;;;1.95;1.85;;;20.30;99.90;;;;;;5046052;28;20227;-73
2022/08/31 01:32:10;;;;;;;1.60;1.50;;;20.50;99.90;;;;;;5048425;28;20712;-74
2022/08/31 01:34:38;;;;;;;2.20;2.00;;;20.60;99.90;;;;;;5044686;28;20226;-75
2022/08/31 01:37:05;;;;;;;1.60;1.50;;;20.60;99.90;;;;;;5047000;28;20680;-75
2022/08/31 01:39:32;;;;;;;1.83;1.70;;;20.70;99.90;;;;;;5045245;28;20223;-73
2022/08/31 01:42:00;;;;;;;1.55;1.45;;;20.70;99.90;;;;;;5044131;28;20220;-73
2022/08/31 01:44:28;;;;;;;1.50;1.40;;;20.70;99.90;;;;;;5045181;28;20252;-75
2022/08/31 01:46:56;;;;;;;1.52;1.42;;;20.70;99.90;;;;;;5042615;28;20685;-75
2022/08/31 01:49:23;;;;;;;1.95;1.40;;;20.70;99.90;;;;;;5046305;28;20210;-74
2022/08/31 01:51:52;;;;;;;2.15;1.67;;;20.70;99.90;;;;;;5046631;28;20223;-74
2022/08/31 01:54:21;;;;;;;2.08;1.73;;;20.60;99.90;;;;;;5046442;28;20191;-76
2022/08/31 01:56:49;;;;;;;1.38;1.27;;;20.60;99.90;;;;;;5045802;28;20288;-75
2022/08/31 01:59:20;;;;;;;1.40;1.30;;;20.50;99.90;;;;;;5047849;28;20203;-75
2022/08/31 02:01:50;;;;;;;1.73;1.60;;;20.50;99.90;;;;;;5045978;28;20305;-75
2022/08/31 02:04:18;;;;;;;1.70;1.60;;;20.40;99.90;;;;;;5046146;28;20191;-74
2022/08/31 02:06:48;;;;;;;1.50;1.40;;;20.40;99.90;;;;;;5045607;28;20524;-75
2022/08/31 02:09:16;;;;;;;1.70;1.60;;;20.40;99.90;;;;;;5045127;28;21869;-77
2022/08/31 02:11:43;;;;;;;1.63;1.52;;;20.40;99.90;;;;;;5046242;28;20862;-76
2022/08/31 02:14:11;;;;;;;1.50;1.40;;;20.40;99.90;;;;;;5046246;28;20205;-76
2022/08/31 02:16:40;;;;;;;1.70;1.60;;;20.40;99.90;;;;;;5047525;28;20191;-75
2022/08/31 02:19:07;;;;;;;2.10;1.90;;;20.40;99.90;;;;;;5049922;28;20207;-75
2022/08/31 02:21:36;;;;;;;2.00;1.80;;;20.40;99.90;;;;;;5047286;28;20890;-76
2022/08/31 02:24:04;;;;;;;1.75;1.65;;;20.40;99.90;;;;;;5046043;28;20191;-76
2022/08/31 02:26:31;;;;;;;1.70;1.60;;;20.40;99.90;;;;;;5048061;28;20722;-76
2022/08/31 02:28:58;;;;;;;1.80;1.70;;;20.40;99.90;;;;;;5046426;28;20531;-76
2022/08/31 02:31:25;;;;;;;1.88;1.77;;;20.40;99.90;;;;;;5051046;28;20234;-75
2022/08/31 02:33:54;;;;;;;1.65;1.55;;;20.30;99.90;;;;;;5049507;28;20191;-76
2022/08/31 02:36:21;;;;;;;2.20;1.58;;;20.40;99.90;;;;;;5053458;28;20728;-74
2022/08/31 02:38:48;;;;;;;1.60;1.50;;;20.30;99.90;;;;;;5052026;28;20199;-76
2022/08/31 02:41:16;;;;;;;1.63;1.52;;;20.30;99.90;;;;;;5050797;28;20219;-74
2022/08/31 02:43:43;;;;;;;1.65;1.55;;;20.30;99.90;;;;;;5048181;28;20195;-74
2022/08/31 02:46:11;;;;;;;1.50;1.40;;;20.30;99.90;;;;;;5050075;28;20226;-75
2022/08/31 02:48:38;;;;;;;1.92;1.50;;;20.30;99.90;;;;;;5051997;28;20278;-75
2022/08/31 02:51:08;;;;;;;1.70;1.60;;;20.20;99.90;;;;;;5053864;28;20222;-75
2022/08/31 02:53:36;;;;;;;1.80;1.60;;;20.20;99.90;;;;;;5052424;28;20222;-76
2022/08/31 02:56:04;;;;;;;1.40;1.35;;;20.20;99.90;;;;;;5052650;28;20607;-76
2022/08/31 02:58:31;;;;;;;1.60;1.50;;;20.20;99.90;;;;;;5049307;28;20207;-75
2022/08/31 03:00:58;;;;;;;1.52;1.42;;;20.20;99.90;;;;;;5049026;28;20210;-75
2022/08/31 03:03:25;;;;;;;1.42;1.40;;;20.20;99.90;;;;;;5049792;28;21490;-75
2022/08/31 03:05:52;;;;;;;1.50;1.40;;;20.20;99.90;;;;;;5049215;28;20222;-75
2022/08/31 03:08:21;;;;;;;1.77;1.65;;;20.30;99.90;;;;;;5047959;28;20198;-73
2022/08/31 03:10:48;;;;;;;1.70;1.60;;;20.30;99.90;;;;;;5048000;28;20238;-75
2022/08/31 03:13:15;;;;;;;2.08;1.60;;;20.30;99.90;;;;;;5049817;28;20268;-75
2022/08/31 03:15:43;;;;;;;1.40;1.30;;;20.20;99.90;;;;;;5051050;28;20215;-75
2022/08/31 03:18:10;;;;;;;2.08;1.40;;;20.20;99.90;;;;;;5050170;28;20195;-76
2022/08/31 03:20:37;;;;;;;1.60;1.50;;;20.30;99.90;;;;;;5048879;28;20218;-75
2022/08/31 03:23:04;;;;;;;1.83;1.73;;;20.30;99.90;;;;;;5051515;28;20221;-76
2022/08/31 03:25:33;;;;;;;1.48;1.38;;;20.30;99.90;;;;;;5047948;28;20222;-76
2022/08/31 03:28:00;;;;;;;1.48;1.40;;;20.40;99.90;;;;;;5050986;28;20199;-75
2022/08/31 03:30:27;;;;;;;1.73;1.60;;;20.40;99.90;;;;;;5048958;28;20223;-76
2022/08/31 03:32:54;;;;;;;1.67;1.58;;;20.50;99.90;;;;;;5051222;28;20214;-76
2022/08/31 03:35:22;;;;;;;1.67;1.58;;;20.50;99.90;;;;;;5048351;28;20593;-75
2022/08/31 03:37:49;;;;;;;1.60;1.50;;;20.50;99.90;;;;;;5050166;28;20240;-75
2022/08/31 03:40:16;;;;;;;1.63;1.52;;;20.40;99.90;;;;;;5048121;28;20219;-76
2022/08/31 03:42:44;;;;;;;1.48;1.40;;;20.40;99.90;;;;;;5050754;28;20218;-75
2022/08/31 03:45:12;;;;;;;1.80;1.70;;;20.30;99.90;;;;;;5049065;28;20222;-75
2022/08/31 03:47:40;;;;;;;2.63;1.58;;;20.10;99.90;;;;;;5050605;28;20195;-75
2022/08/31 03:50:09;;;;;;;1.65;1.55;;;19.90;99.90;;;;;;5048018;28;20649;-75
2022/08/31 03:52:37;;;;;;;1.70;1.60;;;19.90;99.90;;;;;;5050619;28;20219;-75
2022/08/31 03:55:06;;;;;;;1.83;1.70;;;20.00;99.90;;;;;;5050023;28;20723;-76
2022/08/31 03:57:34;;;;;;;1.73;1.40;;;20.00;99.90;;;;;;5050004;28;20195;-75
2022/08/31 04:00:06;;;;;;;1.70;1.60;;;20.00;99.90;;;;;;5049260;28;20215;-75
2022/08/31 04:02:33;;;;;;;3.75;1.58;;;20.10;99.90;;;;;;5048953;28;20219;-75
2022/08/31 04:05:00;;;;;;;1.90;1.80;;;20.10;99.90;;;;;;5048437;28;20218;-75
2022/08/31 04:07:27;;;;;;;1.80;1.70;;;20.10;99.90;;;;;;5048887;28;20207;-75
2022/08/31 04:09:54;;;;;;;1.50;1.40;;;20.20;99.90;;;;;;5049786;28;20217;-75
2022/08/31 04:12:21;;;;;;;1.60;1.50;;;20.10;99.90;;;;;;5051037;28;20223;-75
2022/08/31 04:14:48;;;;;;;1.52;1.42;;;20.10;99.90;;;;;;5048311;28;20211;-74
2022/08/31 04:17:17;;;;;;;1.90;1.73;;;20.10;99.90;;;;;;5051156;28;20218;-75
2022/08/31 04:19:44;;;;;;;1.63;1.52;;;20.20;99.90;;;;;;5050240;28;20214;-75
2022/08/31 04:22:11;;;;;;;1.60;1.50;;;20.20;99.90;;;;;;5048257;28;20618;-76
2022/08/31 04:24:38;;;;;;;3.58;1.73;;;20.20;99.90;;;;;;5046356;28;20226;-75
2022/08/31 04:27:05;;;;;;;1.90;1.80;;;20.00;99.90;;;;;;5046908;28;20203;-74
2022/08/31 04:29:32;;;;;;;2.58;1.70;;;19.90;99.90;;;;;;5047671;28;20280;-75
2022/08/31 04:31:59;;;;;;;1.95;1.80;;;19.90;99.90;;;;;;5046162;28;20497;-75
2022/08/31 04:34:28;;;;;;;1.63;1.52;;;20.00;99.90;;;;;;5049305;28;20242;-75
2022/08/31 04:36:55;;;;;;;1.70;1.60;;;20.00;99.90;;;;;;5046851;28;20195;-75
2022/08/31 04:39:22;;;;;;;1.70;1.60;;;20.00;99.90;;;;;;5044250;28;20195;-75
2022/08/31 04:41:49;;;;;;;1.63;1.52;;;20.10;99.90;;;;;;5048129;28;20246;-75
2022/08/31 04:44:17;;;;;;;1.70;1.60;;;20.10;99.90;;;;;;5045931;28;20651;-73
2022/08/31 04:46:44;;;;;;;1.80;1.50;;;20.10;99.90;;;;;;5047331;28;20203;-75
2022/08/31 04:49:14;;;;;;;1.60;1.50;;;20.10;99.90;;;;;;5046761;28;20203;-74
2022/08/31 04:51:42;;;;;;;2.35;2.15;;;20.10;99.90;;;;;;5044627;28;20260;-75
2022/08/31 04:54:12;;;;;;;2.00;1.90;;;20.20;99.90;;;;;;5048456;28;20202;-75
2022/08/31 04:56:42;;;;;;;1.70;1.60;;;20.30;99.90;;;;;;5047637;28;20210;-75
2022/08/31 04:59:11;;;;;;;1.63;1.52;;;20.30;99.90;;;;;;5046868;28;20589;-75
2022/08/31 05:01:40;;;;;;;1.50;1.40;;;20.20;99.90;;;;;;5045709;28;20230;-76
2022/08/31 05:04:09;;;;;;;4.93;1.70;;;20.00;99.90;;;;;;5041076;28;20213;-74
2022/08/31 05:06:39;;;;;;;1.92;1.83;;;19.80;99.90;;;;;;5044380;28;20223;-72
2022/08/31 05:09:10;;;;;;;2.00;1.90;;;19.60;99.90;;;;;;5049428;28;20191;-70
2022/08/31 05:11:38;;;;;;;2.50;2.10;;;19.70;99.90;;;;;;5048356;28;20217;-73
2022/08/31 05:14:06;;;;;;;3.65;2.00;;;20.00;99.90;;;;;;5046936;28;20199;-73
2022/08/31 05:16:35;;;;;;;2.88;2.00;;;20.40;99.90;;;;;;5047338;28;20219;-73
2022/08/31 05:19:02;;;;;;;2.35;1.90;;;20.60;99.90;;;;;;5047240;28;20653;-73
2022/08/31 05:21:31;;;;;;;2.08;1.98;;;20.60;99.90;;;;;;5046538;28;20226;-74
2022/08/31 05:24:00;;;;;;;2.42;1.88;;;20.60;99.90;;;;;;5040297;28;20191;-73
2022/08/31 05:26:30;;;;;;;1.80;1.70;;;20.40;99.90;;;;;;5044904;28;20221;-73
2022/08/31 05:28:58;;;;;;;2.20;2.00;;;20.20;99.90;;;;;;5042568;28;20590;-72
2022/08/31 05:31:28;;;;;;;3.95;2.00;;;20.20;99.90;;;;;;5046115;28;20223;-74
2022/08/31 05:33:56;;;;;;;2.92;1.70;;;20.20;99.90;;;;;;5043839;28;20207;-74
2022/08/31 05:36:23;;;;;;;2.20;2.00;;;20.10;99.90;;;;;;5044642;28;20223;-74
2022/08/31 05:38:52;;;;;;;1.85;1.75;;;20.20;99.90;;;;;;5045346;28;20196;-76
2022/08/31 05:41:20;;;;;;;2.33;2.03;;;20.30;99.90;;;;;;5048011;28;20294;-75
2022/08/31 05:44:23;;;;;;;1.60;1.50;;;20.50;99.90;;;;;;5045220;28;20205;-76
2022/08/31 05:46:50;;;;;;;3.40;2.00;;;20.60;99.90;;;;;;5045091;28;20218;-76
2022/08/31 05:49:17;;;;;;;1.90;1.80;;;20.80;99.90;;;;;;5042981;28;20206;-76
2022/08/31 05:51:44;;;;;;;1.90;1.80;;;20.90;99.90;;;;;;5046864;28;20649;-75
2022/08/31 05:54:13;;;;;;;1.35;1.35;;;20.80;99.90;;;;;;5047436;28;20201;-77
2022/08/31 05:56:41;;;;;;;1.75;1.60;;;20.80;99.90;;;;;;5043773;28;20276;-76
2022/08/31 05:59:08;;;;;;;1.73;1.63;;;20.80;99.90;;;;;;5047178;28;20207;-74
2022/08/31 06:01:40;;;;;;;1.95;1.85;;;20.80;99.90;;;;;;5047649;28;20230;-73
2022/08/31 06:04:09;;;;;;;1.80;1.70;;;20.60;99.90;;;;;;5032233;28;20203;-75
2022/08/31 06:06:37;;;;;;;1.70;1.60;;;20.60;99.90;;;;;;5038099;28;20225;-76
2022/08/31 06:09:05;;;;;;;1.98;1.83;;;20.60;99.90;;;;;;5048840;28;20543;-76
2022/08/31 06:11:33;;;;;;;2.47;2.00;;;20.60;99.90;;;;;;5041561;28;20230;-75
2022/08/31 06:14:02;;;;;;;2.08;1.88;;;20.60;99.90;;;;;;5037613;28;20195;-75
2022/08/31 06:16:31;;;;;;;2.00;1.90;;;20.60;99.90;;;;;;5034509;28;20222;-76
2022/08/31 06:19:02;;;;;;;2.00;1.90;;;20.60;99.90;;;;;;5035197;28;20210;-76
2022/08/31 06:21:32;;;;;;;2.67;1.83;;;20.60;99.90;;;;;;5055019;23;20229;-77
2022/08/31 06:24:00;;;;;;;1.83;1.73;;;20.70;99.90;;;;;;5047323;28;20286;-77
2022/08/31 06:26:30;;;;;;;1.77;1.67;;;20.70;99.90;;;;;;5053252;28;20672;-76
2022/08/31 06:28:59;;;;;;;1.90;1.80;;;20.70;99.90;;;;;;5049638;28;20202;-77
2022/08/31 06:31:29;;;;;;;1.90;1.80;;;20.80;99.90;;;;;;5031522;28;20721;-78
2022/08/31 06:33:59;;;;;;;2.03;1.90;;;21.10;99.90;;;;;;5032778;28;20648;-77
2022/08/31 06:36:29;;;;;;;1.63;1.52;;;21.20;99.90;;;;;;5035658;28;20233;-75
2022/08/31 06:38:59;;;;;;;1.85;1.42;;;21.40;99.90;;;;;;5028413;28;20219;-77
2022/08/31 06:41:28;;;;;;;2.15;1.70;;;21.50;99.90;;;;;;5035679;28;20226;-78
2022/08/31 06:43:56;;;;;;;1.90;1.80;;;21.70;99.90;;;;;;5027112;28;20200;-77
2022/08/31 06:46:24;;;;;;;1.77;1.65;;;21.90;99.90;;;;;;5029221;28;20234;-77
2022/08/31 06:48:54;;;;;;;1.77;1.65;;;22.00;99.90;;;;;;5026055;28;20207;-78
2022/08/31 06:51:23;;;;;;;4.00;2.10;;;21.80;99.90;;;;;;5019437;28;20236;-77
2022/08/31 06:53:51;;;;;;;2.20;1.88;;;21.80;99.90;;;;;;5024751;28;20219;-77
2022/08/31 06:56:20;;;;;;;2.15;2.05;;;21.80;99.90;;;;;;5022793;28;20215;-77
2022/08/31 06:58:47;;;;;;;3.08;2.30;;;21.70;99.90;;;;;;5026945;28;20207;-76
2022/08/31 07:01:16;;;;;;;2.35;2.17;;;21.60;99.90;;;;;;5027830;28;20705;-77
2022/08/31 07:03:45;;;;;;;2.22;2.03;;;21.70;99.90;;;;;;5024750;28;20195;-74
2022/08/31 07:06:16;;;;;;;2.72;2.45;;;21.70;99.90;;;;;;5025907;28;20227;-76
2022/08/31 07:08:45;;;;;;;2.85;2.65;;;22.00;99.90;;;;;;5027484;28;20199;-76
2022/08/31 07:11:14;;;;;;;2.90;2.70;;;22.70;99.90;;;;;;5026881;28;20235;-76
2022/08/31 07:13:41;;;;;;;3.85;3.50;;;23.00;99.90;;;;;;5019389;28;22160;-77
2022/08/31 07:16:11;;;;;;;4.72;4.32;;;23.00;99.90;;;;;;5029864;28;20229;-76
2022/08/31 07:18:39;;;;;;;5.28;3.67;;;22.80;99.90;;;;;;5022426;28;20200;-77
2022/08/31 07:21:08;;;;;;;4.10;3.78;;;22.60;99.90;;;;;;5026686;28;20220;-79
2022/08/31 07:23:35;;;;;;;5.00;4.50;;;22.50;99.90;;;;;;5026254;28;20614;-77
2022/08/31 07:26:06;;;;;;;5.40;4.20;;;22.90;99.90;;;;;;5030933;28;20219;-77
2022/08/31 07:28:34;;;;;;;5.57;4.47;;;23.20;99.90;;;;;;5023843;28;20832;-77
2022/08/31 07:31:04;;;;;;;5.72;4.70;;;23.10;99.90;;;;;;5027330;28;20226;-76
2022/08/31 07:33:37;;;;;;;5.55;4.40;;;23.30;99.90;;;;;;5026485;28;20269;-76
2022/08/31 07:36:06;;;;;;;5.57;4.22;;;23.60;99.90;;;;;;5030525;28;20701;-75
2022/08/31 07:44:05;;;;;;;5.88;3.75;;;23.10;99.90;;;;;;5021847;28;20203;-77
2022/08/31 07:46:34;;;;;;;3.53;3.22;;;23.20;99.90;;;;;;5025007;28;20313;-76
2022/08/31 07:49:01;;;;;;;3.53;3.22;;;23.20;99.90;;;;;;5027187;28;20199;-77
2022/08/31 07:51:29;;;;;;;3.90;3.50;;;23.30;99.90;;;;;;5026730;28;20323;-78
2022/08/31 07:53:56;;;;;;;3.63;3.33;;;23.70;99.90;;;;;;5029010;28;20594;-76
2022/08/31 07:56:25;;;;;;;3.83;3.40;;;23.60;99.90;;;;;;5026543;28;20227;-77
2022/08/31 07:58:52;;;;;;;3.75;3.10;;;23.60;99.90;;;;;;5030099;28;20202;-76
2022/08/31 08:01:20;;;;;;;4.25;3.70;;;23.60;99.90;;;;;;5021734;28;20227;-77
2022/08/31 08:03:47;;;;;;;3.60;3.30;;;24.00;99.90;;;;;;5030505;28;20194;-77
2022/08/31 08:06:17;;;;;;;3.00;2.80;;;24.40;99.90;;;;;;5025268;28;20259;-78
2022/08/31 08:08:45;;;;;;;5.00;3.70;;;24.40;99.90;;;;;;5036969;28;20198;-76
2022/08/31 08:11:16;;;;;;;3.40;3.20;;;24.60;99.90;;;;;;5030990;28;20231;-77
2022/08/31 08:13:45;;;;;;;3.40;3.10;;;24.80;99.90;;;;;;5032486;28;20306;-73
2022/08/31 08:16:12;;;;;;;3.20;2.75;;;25.00;99.90;;;;;;5029899;28;20214;-78
2022/08/31 08:18:39;;;;;;;3.33;2.88;;;24.90;99.90;;;;;;5034141;28;20198;-76
2022/08/31 08:21:06;;;;;;;4.05;3.72;;;25.20;99.90;;;;;;5025192;28;20639;-76
2022/08/31 08:23:34;;;;;;;4.47;3.45;;;25.00;99.90;;;;;;5024740;28;20218;-76
2022/08/31 08:26:06;;;;;;;2.90;2.70;;;25.00;99.90;;;;;;5025431;28;20219;-76
2022/08/31 08:28:33;;;;;;;3.35;3.05;;;24.70;99.90;;;;;;5031105;28;20187;-75
2022/08/31 08:31:01;;;;;;;3.25;3.05;;;24.90;99.90;;;;;;5024681;28;20235;-77
2022/08/31 08:33:29;;;;;;;3.50;2.70;;;24.80;99.90;;;;;;5025551;28;20784;-75
2022/08/31 08:35:57;;;;;;;3.03;2.83;;;24.90;99.90;;;;;;5018888;28;20226;-75
2022/08/31 08:38:30;;;;;;;3.60;3.30;;;25.10;99.90;;;;;;5022531;28;20207;-76
2022/08/31 08:40:57;;;;;;;2.83;2.60;;;24.80;99.90;;;;;;5026008;28;20223;-77
2022/08/31 08:43:30;;;;;;;3.05;2.80;;;24.80;99.90;;;;;;5025676;28;20192;-76
2022/08/31 08:45:58;;;;;;;2.72;2.53;;;24.80;99.90;;;;;;5030334;28;20223;-76
2022/08/31 08:48:31;;;;;;;4.22;3.67;;;25.20;99.90;;;;;;5032420;28;20685;-77
2022/08/31 08:51:02;;;;;;;3.22;2.95;;;25.20;99.90;;;;;;5025273;28;20619;-77
2022/08/31 08:53:32;;;;;;;3.70;3.40;;;25.00;99.90;;;;;;5026337;28;20215;-75
2022/08/31 08:56:00;;;;;;;3.35;3.15;;;24.80;99.90;;;;;;5022544;28;20226;-76
2022/08/31 08:58:27;;;;;;;3.35;3.05;;;24.80;99.90;;;;;;5026007;28;20882;-77
2022/08/31 09:00:56;;;;;;;3.60;3.28;;;25.10;99.90;;;;;;5025566;28;20226;-75
2022/08/31 09:03:43;;;;;;;2.95;2.70;;;25.40;99.90;;;;;;5023910;28;20195;-76
2022/08/31 09:06:15;;;;;;;3.40;3.10;;;25.70;99.90;;;;;;5021397;28;20221;-77
2022/08/31 09:09:19;;;;;;;5.53;3.17;;;25.70;99.90;;;;;;5023757;28;20215;-76
2022/08/31 09:11:57;;;;;;;2.45;2.25;;;25.70;99.90;;;;;;5018353;28;20325;-76
2022/08/31 09:14:48;;;;;;;3.38;3.08;;;25.70;99.90;;;;;;5024714;28;20212;-77
2022/08/31 09:17:27;;;;;;;4.60;2.47;;;25.70;99.90;;;;;;5023736;28;20224;-77
2022/08/31 09:19:59;;;;;;;2.88;2.67;;;25.50;99.90;;;;;;5019966;28;20231;-78
2022/08/31 09:22:26;;;;;;;4.78;2.85;;;25.70;99.90;;;;;;5033235;28;20196;-76
2022/08/31 09:24:58;;;;;;;3.00;2.80;;;25.70;99.90;;;;;;5025982;28;20254;-77
2022/08/31 09:27:45;;;;;;;2.63;2.42;;;25.70;99.90;;;;;;5026574;28;20206;-78
2022/08/31 09:30:16;;;;;;;3.20;2.47;;;26.20;99.90;;;;;;5022339;28;20254;-76
2022/08/31 09:32:56;;;;;;;2.97;2.78;;;26.10;99.90;;;;;;5027663;28;20231;-76
2022/08/31 09:35:35;;;;;;;2.50;2.30;;;26.20;99.90;;;;;;5036768;28;20214;-76
2022/08/31 09:38:08;;;;;;;2.22;2.03;;;26.30;99.90;;;;;;5025442;28;20717;-76
2022/08/31 09:40:40;;;;;;;2.50;2.30;;;26.40;99.90;;;;;;5021346;28;20243;-75
2022/08/31 09:43:11;;;;;;;2.97;2.50;;;26.20;99.90;;;;;;5025406;28;20199;-77
2022/08/31 09:45:50;;;;;;;2.75;2.55;;;26.20;99.90;;;;;;5024432;28;20305;-77
2022/08/31 09:48:39;;;;;;;2.60;2.40;;;26.30;99.90;;;;;;5026510;28;20214;-77
2022/08/31 09:51:07;;;;;;;2.88;2.40;;;26.50;99.90;;;;;;5021329;28;20251;-76
2022/08/31 09:56:26;;;;;;;2.10;2.00;;;26.50;99.90;;;;;;5031720;28;20627;-77
2022/08/31 09:59:00;;;;;;;2.20;2.10;;;26.40;99.90;;;;;;5029104;28;20234;-77
2022/08/31 10:01:33;;;;;;;2.20;2.10;;;26.60;99.90;;;;;;5023306;28;20314;-78
2022/08/31 10:04:19;;;;;;;2.30;1.98;;;26.60;99.90;;;;;;5025172;28;20278;-75
2022/08/31 10:06:58;;;;;;;1.92;1.83;;;26.90;99.90;;;;;;5031631;28;20222;-76
2022/08/31 10:09:34;;;;;;;1.90;1.80;;;27.00;99.90;;;;;;5027238;28;20207;-77
2022/08/31 10:12:06;;;;;;;1.70;1.60;;;27.10;99.90;;;;;;5023585;28;20215;-75
2022/08/31 10:14:40;;;;;;;2.13;1.90;;;27.40;99.90;;;;;;5030054;28;20226;-77
2022/08/31 10:17:13;;;;;;;2.05;1.95;;;27.40;99.90;;;;;;5028292;28;20200;-76
2022/08/31 10:19:54;;;;;;;2.50;1.73;;;27.40;99.90;;;;;;5022845;28;20247;-77
2022/08/31 10:22:40;;;;;;;2.10;1.90;;;27.70;99.90;;;;;;5029401;28;20791;-77
2022/08/31 10:25:23;;;;;;;1.77;1.60;;;28.10;99.90;;;;;;5025586;28;20249;-77
2022/08/31 10:27:57;;;;;;;2.20;1.73;;;28.30;99.90;;;;;;5025963;28;20199;-77
2022/08/31 10:30:31;;;;;;;1.90;1.80;;;28.50;99.90;;;;;;5024735;28;20245;-75
2022/08/31 10:33:06;;;;;;;1.90;1.80;;;28.10;99.90;;;;;;5024233;28;20223;-76
2022/08/31 10:35:43;;;;;;;1.63;1.52;;;27.60;99.90;;;;;;5022140;28;20240;-74
2022/08/31 10:38:24;;;;;;;2.05;1.85;;;27.00;99.90;;;;;;5026142;28;20210;-76
2022/08/31 10:41:00;;;;;;;1.83;1.70;;;26.70;99.90;;;;;;5022827;28;20787;-77
2022/08/31 10:43:32;;;;;;;1.98;1.88;;;26.40;99.90;;;;;;5019005;28;20574;-76
2022/08/31 10:46:02;;;;;;;1.80;1.70;;;26.30;99.90;;;;;;5028400;28;20228;-78
2022/08/31 10:48:29;;;;;;;1.77;1.50;;;26.20;99.90;;;;;;5020816;28;20198;-76
2022/08/31 10:51:07;;;;;;;1.77;1.67;;;26.20;99.90;;;;;;5020080;28;20222;-76
2022/08/31 10:53:55;;;;;;;1.63;1.52;;;26.20;99.90;;;;;;5023127;28;20257;-76
2022/08/31 10:56:34;;;;;;;1.90;1.75;;;26.20;99.90;;;;;;5031619;28;20230;-76
2022/08/31 10:59:10;;;;;;;1.77;1.67;;;26.10;99.90;;;;;;5029227;28;20195;-77
2022/08/31 11:01:46;;;;;;;1.73;1.63;;;26.10;99.90;;;;;;5026759;28;20226;-76
2022/08/31 11:04:50;;;;;;;3.00;1.48;;;26.00;99.90;;;;;;5024757;28;20201;-78
2022/08/31 11:07:38;;;;;;;1.75;1.65;;;26.20;99.90;;;;;;5015049;28;20199;-78
2022/08/31 11:10:22;;;;;;;2.95;1.77;;;26.90;99.90;;;;;;5023354;28;20219;-77
2022/08/31 11:12:55;;;;;;;1.63;1.52;;;27.40;99.90;;;;;;5023651;28;20677;-75
2022/08/31 11:15:59;;;;;;;1.83;1.73;;;27.70;99.90;;;;;;5028874;28;20309;-77
2022/08/31 11:18:57;;;;;;;2.10;1.90;;;27.70;99.90;;;;;;5026411;28;20689;-77
2022/08/31 11:21:49;;;;;;;1.90;1.80;;;27.80;99.90;;;;;;5005322;28;20234;-78
2022/08/31 11:24:39;;;;;;;1.58;1.48;;;27.90;99.90;;;;;;5029227;28;20206;-76
2022/08/31 11:27:22;;;;;;;1.77;1.67;;;28.00;99.90;;;;;;5016411;28;21817;-78
2022/08/31 11:29:55;;;;;;;1.80;1.70;;;27.70;99.90;;;;;;5025228;28;20661;-77
2022/08/31 11:32:28;;;;;;;1.70;1.60;;;27.00;99.90;;;;;;5027560;28;20198;-77
2022/08/31 11:34:59;;;;;;;1.88;1.77;;;26.40;99.90;;;;;;5028102;28;20235;-77
2022/08/31 11:37:54;;;;;;;1.73;1.63;;;26.20;99.90;;;;;;5023487;28;20191;-79
2022/08/31 11:41:12;;;;;;;1.80;1.70;;;26.20;99.90;;;;;;5031418;28;20261;-78
2022/08/31 11:43:50;;;;;;;1.70;1.60;;;26.80;99.90;;;;;;5016742;28;20251;-76
2022/08/31 11:46:58;;;;;;;1.63;1.40;;;27.30;99.90;;;;;;5027651;28;20228;-78
2022/08/31 11:49:38;;;;;;;1.60;1.50;;;27.70;99.90;;;;;;5025822;28;20239;-77
2022/08/31 11:52:13;;;;;;;1.58;1.48;;;28.00;99.90;;;;;;5024653;28;20227;-76
2022/08/31 11:55:02;;;;;;;2.05;1.80;;;28.30;99.90;;;;;;5029245;28;20234;-73
2022/08/31 11:57:32;;;;;;;1.55;1.45;;;28.30;99.90;;;;;;5024388;28;20284;-76
2022/08/31 12:00:01;;;;;;;1.50;1.40;;;28.30;99.90;;;;;;5020623;28;20303;-77
2022/08/31 12:02:43;;;;;;;1.38;1.27;;;28.30;99.90;;;;;;5023851;28;20195;-77
2022/08/31 12:05:10;;;;;;;1.50;1.40;;;28.40;99.90;;;;;;5028688;28;20579;-78
2022/08/31 12:07:42;;;;;;;1.65;1.30;;;28.30;99.90;;;;;;5027527;28;20242;-77
2022/08/31 12:10:23;;;;;;;1.70;1.60;;;28.00;99.90;;;;;;5032770;28;20231;-76
2022/08/31 12:13:18;;;;;;;1.60;1.50;;;27.80;99.90;;;;;;5037027;28;20818;-75
2022/08/31 12:16:28;;;;;;;1.40;1.40;;;27.40;99.90;;;;;;5027667;28;20219;-73
2022/08/31 12:25:10;;;;;;;1.42;1.33;;;26.50;99.90;;;;;;5015441;28;20342;-72
2022/08/31 12:27:45;;;;;;;1.35;1.25;;;26.40;99.90;;;;;;5017697;28;20202;-73
2022/08/31 12:30:17;;;;;;;1.40;1.30;;;26.30;99.90;;;;;;5018821;28;20215;-75
2022/08/31 12:32:53;;;;;;;1.20;1.20;;;26.20;99.90;;;;;;5004785;28;20247;-73
2022/08/31 12:35:22;;;;;;;1.58;1.48;;;26.20;99.90;;;;;;5002015;28;20243;-73
2022/08/31 12:37:59;;;;;;;1.60;1.50;;;26.30;99.90;;;;;;5004615;28;20296;-73
2022/08/31 12:40:28;;;;;;;2.45;1.40;;;26.80;99.90;;;;;;5006338;28;20220;-73
2022/08/31 12:43:06;;;;;;;1.27;1.17;;;26.90;99.90;;;;;;5005204;28;20959;-73
2022/08/31 12:46:07;;;;;;;1.35;1.25;;;27.00;99.90;;;;;;5003848;28;20855;-72
2022/08/31 12:49:10;;;;;;;1.52;1.42;;;26.80;99.90;;;;;;5004063;28;20211;-73
2022/08/31 12:51:43;;;;;;;1.63;1.52;;;26.50;99.90;;;;;;4962975;28;20227;-72
2022/08/31 12:54:55;;;;;;;1.45;1.35;;;26.10;99.90;;;;;;4999981;28;20606;-74
2022/08/31 12:57:38;;;;;;;1.50;1.40;;;25.80;99.90;;;;;;5002937;28;20211;-74
2022/08/31 13:00:14;;;;;;;1.20;1.20;;;25.60;99.90;;;;;;4999421;28;20301;-74
2022/08/31 13:02:43;;;;;;;1.52;1.40;;;25.50;99.90;;;;;;4999897;28;20306;-74
2022/08/31 13:05:23;;;;;;;1.50;1.40;;;25.40;99.90;;;;;;5002759;28;20220;-74
2022/08/31 13:07:51;;;;;;;1.55;1.25;;;25.30;99.90;;;;;;5001632;28;20208;-76
2022/08/31 13:10:27;;;;;;;1.30;1.20;;;25.30;99.90;;;;;;5002496;28;22046;-75
2022/08/31 13:12:57;;;;;;;1.50;1.27;;;25.40;99.90;;;;;;4999534;28;20286;-73
2022/08/31 13:15:26;;;;;;;1.42;1.33;;;25.50;99.90;;;;;;4995211;28;20233;-74
2022/08/31 13:17:54;;;;;;;1.50;1.40;;;25.80;99.90;;;;;;5000192;28;20200;-73
2022/08/31 13:20:28;;;;;;;1.35;1.25;;;26.30;99.90;;;;;;5001705;28;21368;-73
2022/08/31 13:22:57;;;;;;;1.20;1.10;;;26.90;99.90;;;;;;5004562;28;20258;-73
2022/08/31 13:25:32;;;;;;;1.30;1.20;;;27.50;99.90;;;;;;5002324;28;20224;-73
2022/08/31 13:27:59;;;;;;;2.20;1.00;;;27.80;99.90;;;;;;5000266;28;20654;-73
2022/08/31 13:30:26;;;;;;;1.00;0.88;;;27.80;99.90;;;;;;4998663;28;20216;-73